Terminal Aerodrome Forecast
Issued by NWS

Home | Current Version | Previous Version | Text Only | Print | Product List | Glossary Off
Versions: 1 2 3 4 5 6 7 8 9 10 11 12 13 14 15 16 17 18 19 20 21 22 23 24 25 26 27 28 29 30 31 32 33 34 35 36 37 38 39 40 41 42 43 44 45 46 47

624
FTUS43 KLOT 151457 AAA
TAFGYY
TAF AMD
KGYY 151457Z 1515/1612 29022G34KT P6SM BKN019 OVC023
      TEMPO 1515/1517 23015KT -DZ
     FM151800 31017G26KT P6SM BKN025
     FM152300 32012KT P6SM BKN040
     FM160300 29005KT P6SM SCT250=

USA.gov is the U.S. government's official web portal to all federal, state and local government web resources and services.